sensor_id;sensor_type;location;lat;lon;timestamp;temperature;humidity
19665;DHT22;9980;51.020;7.772;2023-10-31T00:01:12;15.70;99.90
19665;DHT22;9980;51.020;7.772;2023-10-31T00:03:39;15.70;99.90
19665;DHT22;9980;51.020;7.772;2023-10-31T00:06:07;15.60;99.90
19665;DHT22;9980;51.020;7.772;2023-10-31T00:08:34;15.60;99.90
19665;DHT22;9980;51.020;7.772;2023-10-31T00:11:00;15.50;99.90
19665;DHT22;9980;51.020;7.772;2023-10-31T00:13:27;15.50;99.90
19665;DHT22;9980;51.020;7.772;2023-10-31T00:15:54;15.40;99.90
19665;DHT22;9980;51.020;7.772;2023-10-31T00:18:21;15.40;99.90
19665;DHT22;9980;51.020;7.772;2023-10-31T00:20:48;15.30;99.90
19665;DHT22;9980;51.020;7.772;2023-10-31T00:23:15;15.30;99.90
19665;DHT22;9980;51.020;7.772;2023-10-31T00:25:42;15.20;99.90
19665;DHT22;9980;51.020;7.772;2023-10-31T00:28:09;15.20;99.90
19665;DHT22;9980;51.020;7.772;2023-10-31T00:30:37;15.10;99.90
19665;DHT22;9980;51.020;7.772;2023-10-31T00:33:04;15.10;99.90
19665;DHT22;9980;51.020;7.772;2023-10-31T00:35:31;15.00;99.90
19665;DHT22;9980;51.020;7.772;2023-10-31T00:37:58;15.00;99.90
19665;DHT22;9980;51.020;7.772;2023-10-31T00:40:24;14.90;99.90
19665;DHT22;9980;51.020;7.772;2023-10-31T00:42:51;14.90;99.90
19665;DHT22;9980;51.020;7.772;2023-10-31T00:45:18;14.80;99.90
19665;DHT22;9980;51.020;7.772;2023-10-31T00:47:45;14.80;99.90
19665;DHT22;9980;51.020;7.772;2023-10-31T00:50:12;14.70;99.90
19665;DHT22;9980;51.020;7.772;2023-10-31T00:52:39;14.70;99.90
19665;DHT22;9980;51.020;7.772;2023-10-31T00:55:07;14.70;99.90
19665;DHT22;9980;51.020;7.772;2023-10-31T00:57:33;14.70;99.90
19665;DHT22;9980;51.020;7.772;2023-10-31T01:00:00;14.60;99.90
19665;DHT22;9980;51.020;7.772;2023-10-31T01:02:27;14.60;99.90
19665;DHT22;9980;51.020;7.772;2023-10-31T01:04:54;14.60;99.90
19665;DHT22;9980;51.020;7.772;2023-10-31T01:07:21;14.60;99.90
19665;DHT22;9980;51.020;7.772;2023-10-31T01:09:48;14.50;99.90
19665;DHT22;9980;51.020;7.772;2023-10-31T01:12:15;14.50;99.90
19665;DHT22;9980;51.020;7.772;2023-10-31T01:14:42;14.50;99.90
19665;DHT22;9980;51.020;7.772;2023-10-31T01:17:09;14.40;99.90
19665;DHT22;9980;51.020;7.772;2023-10-31T01:19:36;14.40;99.90
19665;DHT22;9980;51.020;7.772;2023-10-31T01:22:03;14.40;99.90
19665;DHT22;9980;51.020;7.772;2023-10-31T01:24:30;14.40;99.90
19665;DHT22;9980;51.020;7.772;2023-10-31T01:26:56;14.40;99.90
19665;DHT22;9980;51.020;7.772;2023-10-31T01:29:23;14.40;99.90
19665;DHT22;9980;51.020;7.772;2023-10-31T01:31:50;14.40;99.90
19665;DHT22;9980;51.020;7.772;2023-10-31T01:34:27;14.30;99.90
19665;DHT22;9980;51.020;7.772;2023-10-31T01:36:54;14.30;99.90
19665;DHT22;9980;51.020;7.772;2023-10-31T01:39:21;14.30;99.90
19665;DHT22;9980;51.020;7.772;2023-10-31T01:41:48;14.30;99.90
19665;DHT22;9980;51.020;7.772;2023-10-31T01:44:15;14.30;99.90
19665;DHT22;9980;51.020;7.772;2023-10-31T01:46:42;14.30;99.90
19665;DHT22;9980;51.020;7.772;2023-10-31T01:49:09;14.30;99.90
19665;DHT22;9980;51.020;7.772;2023-10-31T01:51:36;14.30;99.90
19665;DHT22;9980;51.020;7.772;2023-10-31T01:54:04;14.20;99.90
19665;DHT22;9980;51.020;7.772;2023-10-31T01:56:31;14.20;99.90
19665;DHT22;9980;51.020;7.772;2023-10-31T01:58:58;14.20;99.90
19665;DHT22;9980;51.020;7.772;2023-10-31T02:01:25;14.20;99.90
19665;DHT22;9980;51.020;7.772;2023-10-31T02:03:53;14.20;99.90
19665;DHT22;9980;51.020;7.772;2023-10-31T02:06:20;14.20;99.90
19665;DHT22;9980;51.020;7.772;2023-10-31T02:08:48;14.20;99.90
19665;DHT22;9980;51.020;7.772;2023-10-31T02:11:15;14.20;99.90
19665;DHT22;9980;51.020;7.772;2023-10-31T02:13:42;14.20;99.90
19665;DHT22;9980;51.020;7.772;2023-10-31T02:16:09;14.20;99.90
19665;DHT22;9980;51.020;7.772;2023-10-31T02:18:36;14.10;99.90
19665;DHT22;9980;51.020;7.772;2023-10-31T02:21:03;14.10;99.90
19665;DHT22;9980;51.020;7.772;2023-10-31T02:23:30;14.10;99.90
19665;DHT22;9980;51.020;7.772;2023-10-31T02:25:57;14.10;99.90
19665;DHT22;9980;51.020;7.772;2023-10-31T02:28:24;14.00;99.90
19665;DHT22;9980;51.020;7.772;2023-10-31T02:30:54;14.00;99.90
19665;DHT22;9980;51.020;7.772;2023-10-31T02:33:21;14.00;99.90
19665;DHT22;9980;51.020;7.772;2023-10-31T02:35:48;14.00;99.90
19665;DHT22;9980;51.020;7.772;2023-10-31T02:38:15;14.00;99.90
19665;DHT22;9980;51.020;7.772;2023-10-31T02:40:42;14.00;99.90
19665;DHT22;9980;51.020;7.772;2023-10-31T02:43:09;14.00;99.90
19665;DHT22;9980;51.020;7.772;2023-10-31T02:45:36;13.90;99.90
19665;DHT22;9980;51.020;7.772;2023-10-31T02:48:03;13.90;99.90
19665;DHT22;9980;51.020;7.772;2023-10-31T02:50:30;13.90;99.90
19665;DHT22;9980;51.020;7.772;2023-10-31T02:52:57;13.80;99.90
19665;DHT22;9980;51.020;7.772;2023-10-31T02:55:24;13.80;99.90
19665;DHT22;9980;51.020;7.772;2023-10-31T02:57:51;13.80;99.90
19665;DHT22;9980;51.020;7.772;2023-10-31T03:00:19;13.80;99.90
19665;DHT22;9980;51.020;7.772;2023-10-31T03:02:46;13.70;99.90
19665;DHT22;9980;51.020;7.772;2023-10-31T03:05:13;13.70;99.90
19665;DHT22;9980;51.020;7.772;2023-10-31T03:07:40;13.70;99.90
19665;DHT22;9980;51.020;7.772;2023-10-31T03:10:07;13.70;99.90
19665;DHT22;9980;51.020;7.772;2023-10-31T03:12:34;13.70;99.90
19665;DHT22;9980;51.020;7.772;2023-10-31T03:15:05;13.70;99.90
19665;DHT22;9980;51.020;7.772;2023-10-31T03:17:32;13.70;99.90
19665;DHT22;9980;51.020;7.772;2023-10-31T03:19:59;13.70;99.90
19665;DHT22;9980;51.020;7.772;2023-10-31T03:22:26;13.70;99.90
19665;DHT22;9980;51.020;7.772;2023-10-31T03:24:53;13.60;99.90
19665;DHT22;9980;51.020;7.772;2023-10-31T03:27:20;13.60;99.90
19665;DHT22;9980;51.020;7.772;2023-10-31T03:29:47;13.60;99.90
19665;DHT22;9980;51.020;7.772;2023-10-31T03:32:14;13.60;99.90
19665;DHT22;9980;51.020;7.772;2023-10-31T03:34:42;13.60;99.90
19665;DHT22;9980;51.020;7.772;2023-10-31T03:37:09;13.60;99.90
19665;DHT22;9980;51.020;7.772;2023-10-31T03:39:36;13.60;99.90
19665;DHT22;9980;51.020;7.772;2023-10-31T03:42:03;13.60;99.90
19665;DHT22;9980;51.020;7.772;2023-10-31T03:44:31;13.60;99.90
19665;DHT22;9980;51.020;7.772;2023-10-31T03:46:58;13.60;99.90
19665;DHT22;9980;51.020;7.772;2023-10-31T03:49:25;13.60;99.90
19665;DHT22;9980;51.020;7.772;2023-10-31T03:51:52;13.60;99.90
19665;DHT22;9980;51.020;7.772;2023-10-31T03:54:19;13.50;99.90
19665;DHT22;9980;51.020;7.772;2023-10-31T03:56:47;13.50;99.90
19665;DHT22;9980;51.020;7.772;2023-10-31T03:59:16;13.50;99.90
19665;DHT22;9980;51.020;7.772;2023-10-31T04:01:43;13.50;99.90
19665;DHT22;9980;51.020;7.772;2023-10-31T04:04:10;13.50;99.90
19665;DHT22;9980;51.020;7.772;2023-10-31T04:06:37;13.50;99.90
19665;DHT22;9980;51.020;7.772;2023-10-31T04:09:07;13.50;99.90
19665;DHT22;9980;51.020;7.772;2023-10-31T04:11:34;13.40;99.90
19665;DHT22;9980;51.020;7.772;2023-10-31T04:14:01;13.50;99.90
19665;DHT22;9980;51.020;7.772;2023-10-31T04:16:28;13.40;99.90
19665;DHT22;9980;51.020;7.772;2023-10-31T04:18:55;13.40;99.90
19665;DHT22;9980;51.020;7.772;2023-10-31T04:21:22;13.40;99.90
19665;DHT22;9980;51.020;7.772;2023-10-31T04:23:48;13.40;99.90
19665;DHT22;9980;51.020;7.772;2023-10-31T04:26:15;13.40;99.90
19665;DHT22;9980;51.020;7.772;2023-10-31T04:28:43;13.40;99.90
19665;DHT22;9980;51.020;7.772;2023-10-31T04:31:10;13.40;99.90
19665;DHT22;9980;51.020;7.772;2023-10-31T04:33:37;13.40;99.90
19665;DHT22;9980;51.020;7.772;2023-10-31T04:36:04;13.40;99.90
19665;DHT22;9980;51.020;7.772;2023-10-31T04:38:32;13.40;99.90
19665;DHT22;9980;51.020;7.772;2023-10-31T04:40:59;13.40;99.90
19665;DHT22;9980;51.020;7.772;2023-10-31T04:43:26;13.40;99.90
19665;DHT22;9980;51.020;7.772;2023-10-31T04:45:53;13.30;99.90
19665;DHT22;9980;51.020;7.772;2023-10-31T04:48:20;13.40;99.90
19665;DHT22;9980;51.020;7.772;2023-10-31T04:50:47;13.30;99.90
19665;DHT22;9980;51.020;7.772;2023-10-31T04:53:14;13.30;99.90
19665;DHT22;9980;51.020;7.772;2023-10-31T04:55:40;13.30;99.90
19665;DHT22;9980;51.020;7.772;2023-10-31T04:58:07;13.30;99.90
19665;DHT22;9980;51.020;7.772;2023-10-31T05:00:34;13.30;99.90
19665;DHT22;9980;51.020;7.772;2023-10-31T05:03:02;13.30;99.90
19665;DHT22;9980;51.020;7.772;2023-10-31T05:05:29;13.20;99.90
19665;DHT22;9980;51.020;7.772;2023-10-31T05:07:56;13.20;99.90
19665;DHT22;9980;51.020;7.772;2023-10-31T05:10:23;13.20;99.90
19665;DHT22;9980;51.020;7.772;2023-10-31T05:12:51;13.20;99.90
19665;DHT22;9980;51.020;7.772;2023-10-31T05:15:18;13.20;99.90
19665;DHT22;9980;51.020;7.772;2023-10-31T05:17:45;13.20;99.90
19665;DHT22;9980;51.020;7.772;2023-10-31T05:20:13;13.20;99.90
19665;DHT22;9980;51.020;7.772;2023-10-31T05:22:40;13.20;99.90
19665;DHT22;9980;51.020;7.772;2023-10-31T05:25:08;13.10;99.90
19665;DHT22;9980;51.020;7.772;2023-10-31T05:27:35;13.10;99.90
19665;DHT22;9980;51.020;7.772;2023-10-31T05:30:02;13.10;99.90
19665;DHT22;9980;51.020;7.772;2023-10-31T05:32:29;13.10;99.90
19665;DHT22;9980;51.020;7.772;2023-10-31T05:34:56;13.10;99.90
19665;DHT22;9980;51.020;7.772;2023-10-31T05:37:26;13.10;99.90
19665;DHT22;9980;51.020;7.772;2023-10-31T05:39:53;13.10;99.90
19665;DHT22;9980;51.020;7.772;2023-10-31T05:42:20;13.10;99.90
19665;DHT22;9980;51.020;7.772;2023-10-31T05:44:47;13.10;99.90
19665;DHT22;9980;51.020;7.772;2023-10-31T05:47:14;13.10;99.90
19665;DHT22;9980;51.020;7.772;2023-10-31T05:49:43;13.10;99.90
19665;DHT22;9980;51.020;7.772;2023-10-31T05:52:11;13.10;99.90
19665;DHT22;9980;51.020;7.772;2023-10-31T05:54:38;13.10;99.90
19665;DHT22;9980;51.020;7.772;2023-10-31T05:57:05;13.10;99.90
19665;DHT22;9980;51.020;7.772;2023-10-31T05:59:31;13.10;99.90
19665;DHT22;9980;51.020;7.772;2023-10-31T06:01:59;13.10;99.90
19665;DHT22;9980;51.020;7.772;2023-10-31T06:04:26;13.10;99.90
19665;DHT22;9980;51.020;7.772;2023-10-31T06:06:53;13.10;99.90
19665;DHT22;9980;51.020;7.772;2023-10-31T06:09:20;13.10;99.90
19665;DHT22;9980;51.020;7.772;2023-10-31T06:11:47;13.00;99.90
19665;DHT22;9980;51.020;7.772;2023-10-31T06:14:14;13.00;99.90
19665;DHT22;9980;51.020;7.772;2023-10-31T06:16:41;13.00;99.90
19665;DHT22;9980;51.020;7.772;2023-10-31T06:19:09;13.00;99.90
19665;DHT22;9980;51.020;7.772;2023-10-31T06:21:36;13.10;99.90
19665;DHT22;9980;51.020;7.772;2023-10-31T06:24:04;13.00;99.90
19665;DHT22;9980;51.020;7.772;2023-10-31T06:26:31;13.00;99.90
19665;DHT22;9980;51.020;7.772;2023-10-31T06:28:58;13.10;99.90
19665;DHT22;9980;51.020;7.772;2023-10-31T06:31:45;13.10;99.90
19665;DHT22;9980;51.020;7.772;2023-10-31T06:34:12;13.00;99.90
19665;DHT22;9980;51.020;7.772;2023-10-31T06:36:39;13.00;99.90
19665;DHT22;9980;51.020;7.772;2023-10-31T06:39:06;13.00;99.90
19665;DHT22;9980;51.020;7.772;2023-10-31T06:41:33;13.00;99.90
19665;DHT22;9980;51.020;7.772;2023-10-31T06:44:00;13.00;99.90
19665;DHT22;9980;51.020;7.772;2023-10-31T06:46:27;13.00;99.90
19665;DHT22;9980;51.020;7.772;2023-10-31T06:48:53;13.00;99.90
19665;DHT22;9980;51.020;7.772;2023-10-31T06:51:20;13.00;99.90
19665;DHT22;9980;51.020;7.772;2023-10-31T06:53:47;13.00;99.90
19665;DHT22;9980;51.020;7.772;2023-10-31T06:56:14;13.10;99.90
19665;DHT22;9980;51.020;7.772;2023-10-31T06:58:41;13.10;99.90
19665;DHT22;9980;51.020;7.772;2023-10-31T07:01:08;13.00;99.90
19665;DHT22;9980;51.020;7.772;2023-10-31T07:03:36;13.00;99.90
19665;DHT22;9980;51.020;7.772;2023-10-31T07:06:03;13.00;99.90
19665;DHT22;9980;51.020;7.772;2023-10-31T07:08:30;13.00;99.90
19665;DHT22;9980;51.020;7.772;2023-10-31T07:10:57;13.00;99.90
19665;DHT22;9980;51.020;7.772;2023-10-31T07:13:27;13.00;99.90
19665;DHT22;9980;51.020;7.772;2023-10-31T07:15:54;13.00;99.90
19665;DHT22;9980;51.020;7.772;2023-10-31T07:18:21;13.00;99.90
19665;DHT22;9980;51.020;7.772;2023-10-31T07:20:48;13.00;99.90
19665;DHT22;9980;51.020;7.772;2023-10-31T07:23:21;13.00;99.90
19665;DHT22;9980;51.020;7.772;2023-10-31T07:25:49;13.00;99.90
19665;DHT22;9980;51.020;7.772;2023-10-31T07:28:16;13.00;99.90
19665;DHT22;9980;51.020;7.772;2023-10-31T07:30:43;13.00;99.90
19665;DHT22;9980;51.020;7.772;2023-10-31T07:33:10;13.00;99.90
19665;DHT22;9980;51.020;7.772;2023-10-31T07:35:37;13.00;99.90
19665;DHT22;9980;51.020;7.772;2023-10-31T07:38:04;13.00;99.90
19665;DHT22;9980;51.020;7.772;2023-10-31T07:40:31;13.00;99.90
19665;DHT22;9980;51.020;7.772;2023-10-31T07:42:59;13.00;99.90
19665;DHT22;9980;51.020;7.772;2023-10-31T07:45:25;13.00;99.90
19665;DHT22;9980;51.020;7.772;2023-10-31T07:47:52;13.00;99.90
19665;DHT22;9980;51.020;7.772;2023-10-31T07:50:19;13.00;99.90
19665;DHT22;9980;51.020;7.772;2023-10-31T07:52:46;13.00;99.90
19665;DHT22;9980;51.020;7.772;2023-10-31T07:55:14;13.00;99.90
19665;DHT22;9980;51.020;7.772;2023-10-31T07:57:41;13.00;99.90
19665;DHT22;9980;51.020;7.772;2023-10-31T08:00:11;13.00;99.90
19665;DHT22;9980;51.020;7.772;2023-10-31T08:02:39;13.00;99.90
19665;DHT22;9980;51.020;7.772;2023-10-31T08:05:07;13.00;99.90
19665;DHT22;9980;51.020;7.772;2023-10-31T08:07:34;13.00;99.90
19665;DHT22;9980;51.020;7.772;2023-10-31T08:10:02;13.00;99.90
19665;DHT22;9980;51.020;7.772;2023-10-31T08:12:30;13.00;99.90
19665;DHT22;9980;51.020;7.772;2023-10-31T08:14:57;13.00;99.90
19665;DHT22;9980;51.020;7.772;2023-10-31T08:17:25;13.00;99.90
19665;DHT22;9980;51.020;7.772;2023-10-31T08:19:53;13.00;99.90
19665;DHT22;9980;51.020;7.772;2023-10-31T08:22:19;13.00;99.90
19665;DHT22;9980;51.020;7.772;2023-10-31T08:24:46;13.00;99.90
19665;DHT22;9980;51.020;7.772;2023-10-31T08:27:13;13.10;99.90
19665;DHT22;9980;51.020;7.772;2023-10-31T08:29:40;13.00;99.90
19665;DHT22;9980;51.020;7.772;2023-10-31T08:32:08;13.00;99.90
19665;DHT22;9980;51.020;7.772;2023-10-31T08:34:34;13.10;99.90
19665;DHT22;9980;51.020;7.772;2023-10-31T08:37:02;13.10;99.90
19665;DHT22;9980;51.020;7.772;2023-10-31T08:39:29;13.10;99.90
19665;DHT22;9980;51.020;7.772;2023-10-31T08:41:57;13.10;99.90
19665;DHT22;9980;51.020;7.772;2023-10-31T08:44:24;13.10;99.90
19665;DHT22;9980;51.020;7.772;2023-10-31T08:46:52;13.10;99.90
19665;DHT22;9980;51.020;7.772;2023-10-31T08:49:19;13.10;99.90
19665;DHT22;9980;51.020;7.772;2023-10-31T08:51:46;13.10;99.90
19665;DHT22;9980;51.020;7.772;2023-10-31T08:54:13;13.20;99.90
19665;DHT22;9980;51.020;7.772;2023-10-31T08:56:40;13.20;99.90
19665;DHT22;9980;51.020;7.772;2023-10-31T08:59:07;13.20;99.90
19665;DHT22;9980;51.020;7.772;2023-10-31T09:01:34;13.20;99.90
19665;DHT22;9980;51.020;7.772;2023-10-31T09:04:01;13.20;99.90
19665;DHT22;9980;51.020;7.772;2023-10-31T09:06:28;13.20;99.90
19665;DHT22;9980;51.020;7.772;2023-10-31T09:08:55;13.20;99.90
19665;DHT22;9980;51.020;7.772;2023-10-31T09:11:22;13.20;99.90
19665;DHT22;9980;51.020;7.772;2023-10-31T09:13:49;13.20;99.90
19665;DHT22;9980;51.020;7.772;2023-10-31T09:16:16;13.30;99.90
19665;DHT22;9980;51.020;7.772;2023-10-31T09:18:43;13.30;99.90
19665;DHT22;9980;51.020;7.772;2023-10-31T09:21:10;13.20;99.90
19665;DHT22;9980;51.020;7.772;2023-10-31T09:23:37;13.30;99.90
19665;DHT22;9980;51.020;7.772;2023-10-31T09:26:04;13.20;99.90
19665;DHT22;9980;51.020;7.772;2023-10-31T09:28:31;13.20;99.90
19665;DHT22;9980;51.020;7.772;2023-10-31T09:30:58;13.20;99.90
19665;DHT22;9980;51.020;7.772;2023-10-31T09:33:27;13.20;99.90
19665;DHT22;9980;51.020;7.772;2023-10-31T09:35:54;13.20;99.90
19665;DHT22;9980;51.020;7.772;2023-10-31T09:38:21;13.20;99.90
19665;DHT22;9980;51.020;7.772;2023-10-31T09:40:48;13.30;99.90
19665;DHT22;9980;51.020;7.772;2023-10-31T09:43:16;13.30;99.90
19665;DHT22;9980;51.020;7.772;2023-10-31T09:45:43;13.30;99.90
19665;DHT22;9980;51.020;7.772;2023-10-31T09:48:12;13.30;99.90
19665;DHT22;9980;51.020;7.772;2023-10-31T09:50:39;13.30;99.90
19665;DHT22;9980;51.020;7.772;2023-10-31T09:53:08;13.30;99.90
19665;DHT22;9980;51.020;7.772;2023-10-31T09:55:37;13.30;99.90
19665;DHT22;9980;51.020;7.772;2023-10-31T09:58:05;13.40;99.90
19665;DHT22;9980;51.020;7.772;2023-10-31T10:00:32;13.40;99.90
19665;DHT22;9980;51.020;7.772;2023-10-31T10:02:59;13.40;99.90
19665;DHT22;9980;51.020;7.772;2023-10-31T10:05:26;13.50;99.90
19665;DHT22;9980;51.020;7.772;2023-10-31T10:07:58;13.50;99.90
19665;DHT22;9980;51.020;7.772;2023-10-31T10:10:24;13.60;99.90
19665;DHT22;9980;51.020;7.772;2023-10-31T10:12:52;13.70;99.90
19665;DHT22;9980;51.020;7.772;2023-10-31T10:15:19;13.70;99.90
19665;DHT22;9980;51.020;7.772;2023-10-31T10:17:52;13.70;99.90
19665;DHT22;9980;51.020;7.772;2023-10-31T10:20:20;13.80;99.90
19665;DHT22;9980;51.020;7.772;2023-10-31T10:22:47;13.80;99.90
19665;DHT22;9980;51.020;7.772;2023-10-31T10:25:15;13.90;99.90
19665;DHT22;9980;51.020;7.772;2023-10-31T10:27:47;13.90;99.90
19665;DHT22;9980;51.020;7.772;2023-10-31T10:30:15;14.00;99.90
19665;DHT22;9980;51.020;7.772;2023-10-31T10:32:42;14.00;99.90
19665;DHT22;9980;51.020;7.772;2023-10-31T10:35:09;14.00;99.90
19665;DHT22;9980;51.020;7.772;2023-10-31T10:37:39;14.00;99.90
19665;DHT22;9980;51.020;7.772;2023-10-31T10:40:07;14.10;99.90
19665;DHT22;9980;51.020;7.772;2023-10-31T10:42:45;14.10;99.90
19665;DHT22;9980;51.020;7.772;2023-10-31T10:45:16;14.10;99.90
19665;DHT22;9980;51.020;7.772;2023-10-31T10:47:47;14.10;99.90
19665;DHT22;9980;51.020;7.772;2023-10-31T10:50:19;14.10;99.90
19665;DHT22;9980;51.020;7.772;2023-10-31T10:52:54;14.10;99.90
19665;DHT22;9980;51.020;7.772;2023-10-31T10:55:30;14.00;99.90
19665;DHT22;9980;51.020;7.772;2023-10-31T10:58:10;14.10;99.90
19665;DHT22;9980;51.020;7.772;2023-10-31T11:00:59;14.10;99.90
19665;DHT22;9980;51.020;7.772;2023-10-31T11:03:27;14.10;99.90
19665;DHT22;9980;51.020;7.772;2023-10-31T11:05:56;14.10;99.90
19665;DHT22;9980;51.020;7.772;2023-10-31T11:08:24;14.10;99.90
19665;DHT22;9980;51.020;7.772;2023-10-31T11:10:53;14.10;99.90
19665;DHT22;9980;51.020;7.772;2023-10-31T11:13:21;14.10;99.90
19665;DHT22;9980;51.020;7.772;2023-10-31T11:15:52;14.20;99.90
19665;DHT22;9980;51.020;7.772;2023-10-31T11:18:23;14.20;99.90
19665;DHT22;9980;51.020;7.772;2023-10-31T11:20:51;14.30;99.90
19665;DHT22;9980;51.020;7.772;2023-10-31T11:23:18;14.30;99.90
19665;DHT22;9980;51.020;7.772;2023-10-31T11:25:49;14.30;99.90
19665;DHT22;9980;51.020;7.772;2023-10-31T11:28:19;14.40;99.90
19665;DHT22;9980;51.020;7.772;2023-10-31T11:30:50;14.40;99.90
19665;DHT22;9980;51.020;7.772;2023-10-31T11:33:20;14.50;99.90
19665;DHT22;9980;51.020;7.772;2023-10-31T11:36:00;14.50;99.90
19665;DHT22;9980;51.020;7.772;2023-10-31T11:38:31;14.60;99.90
19665;DHT22;9980;51.020;7.772;2023-10-31T11:41:02;14.70;99.90
19665;DHT22;9980;51.020;7.772;2023-10-31T11:46:23;14.70;99.90
19665;DHT22;9980;51.020;7.772;2023-10-31T11:48:53;14.80;99.90
19665;DHT22;9980;51.020;7.772;2023-10-31T11:51:24;14.80;99.90
19665;DHT22;9980;51.020;7.772;2023-10-31T11:53:52;14.90;99.90
19665;DHT22;9980;51.020;7.772;2023-10-31T11:56:20;15.00;99.90
19665;DHT22;9980;51.020;7.772;2023-10-31T11:58:58;15.10;99.90
19665;DHT22;9980;51.020;7.772;2023-10-31T12:01:27;15.10;99.90
19665;DHT22;9980;51.020;7.772;2023-10-31T12:03:55;15.20;99.90
19665;DHT22;9980;51.020;7.772;2023-10-31T12:06:22;15.20;99.90
19665;DHT22;9980;51.020;7.772;2023-10-31T12:08:49;15.30;99.90
19665;DHT22;9980;51.020;7.772;2023-10-31T12:11:19;15.30;99.90
19665;DHT22;9980;51.020;7.772;2023-10-31T12:13:57;15.40;99.90
19665;DHT22;9980;51.020;7.772;2023-10-31T12:16:33;15.40;99.90
19665;DHT22;9980;51.020;7.772;2023-10-31T12:19:03;15.40;99.90
19665;DHT22;9980;51.020;7.772;2023-10-31T12:21:45;15.50;99.90
19665;DHT22;9980;51.020;7.772;2023-10-31T12:24:17;15.50;99.90
19665;DHT22;9980;51.020;7.772;2023-10-31T12:26:45;15.50;99.90
19665;DHT22;9980;51.020;7.772;2023-10-31T12:29:17;15.50;99.90
19665;DHT22;9980;51.020;7.772;2023-10-31T12:31:53;15.50;99.90
19665;DHT22;9980;51.020;7.772;2023-10-31T12:34:23;15.50;99.90
19665;DHT22;9980;51.020;7.772;2023-10-31T12:36:52;15.40;99.90
19665;DHT22;9980;51.020;7.772;2023-10-31T12:39:25;15.40;99.90
19665;DHT22;9980;51.020;7.772;2023-10-31T12:41:54;15.40;99.90
19665;DHT22;9980;51.020;7.772;2023-10-31T12:44:26;15.40;99.90
19665;DHT22;9980;51.020;7.772;2023-10-31T12:46:55;15.40;99.90
19665;DHT22;9980;51.020;7.772;2023-10-31T12:49:22;15.40;99.90
19665;DHT22;9980;51.020;7.772;2023-10-31T12:54:28;15.50;99.90
19665;DHT22;9980;51.020;7.772;2023-10-31T12:57:01;15.60;99.90
19665;DHT22;9980;51.020;7.772;2023-10-31T12:59:35;15.60;99.90
19665;DHT22;9980;51.020;7.772;2023-10-31T13:02:06;15.70;99.90
19665;DHT22;9980;51.020;7.772;2023-10-31T13:04:35;15.70;99.90
19665;DHT22;9980;51.020;7.772;2023-10-31T13:07:04;15.70;99.90
19665;DHT22;9980;51.020;7.772;2023-10-31T13:09:33;15.80;99.90
19665;DHT22;9980;51.020;7.772;2023-10-31T13:12:05;15.80;99.90
19665;DHT22;9980;51.020;7.772;2023-10-31T13:14:33;15.70;99.90
19665;DHT22;9980;51.020;7.772;2023-10-31T13:17:00;15.70;99.90
19665;DHT22;9980;51.020;7.772;2023-10-31T13:19:29;15.70;99.90
19665;DHT22;9980;51.020;7.772;2023-10-31T13:21:55;15.70;99.90
19665;DHT22;9980;51.020;7.772;2023-10-31T13:24:23;15.60;99.90
19665;DHT22;9980;51.020;7.772;2023-10-31T13:26:50;15.60;99.90
19665;DHT22;9980;51.020;7.772;2023-10-31T13:29:20;15.70;99.90
19665;DHT22;9980;51.020;7.772;2023-10-31T13:31:47;15.60;99.90
19665;DHT22;9980;51.020;7.772;2023-10-31T13:34:14;15.60;99.90
19665;DHT22;9980;51.020;7.772;2023-10-31T13:36:41;15.60;99.90
19665;DHT22;9980;51.020;7.772;2023-10-31T13:39:09;15.60;99.90
19665;DHT22;9980;51.020;7.772;2023-10-31T13:41:36;15.60;99.90
19665;DHT22;9980;51.020;7.772;2023-10-31T13:44:03;15.60;99.90
19665;DHT22;9980;51.020;7.772;2023-10-31T13:46:30;15.60;99.90
19665;DHT22;9980;51.020;7.772;2023-10-31T13:48:57;15.60;99.90
19665;DHT22;9980;51.020;7.772;2023-10-31T13:51:24;15.60;99.90
19665;DHT22;9980;51.020;7.772;2023-10-31T13:53:51;15.60;99.90
19665;DHT22;9980;51.020;7.772;2023-10-31T13:56:18;15.60;99.90
19665;DHT22;9980;51.020;7.772;2023-10-31T13:58:45;15.60;99.90
19665;DHT22;9980;51.020;7.772;2023-10-31T14:01:12;15.60;99.90
19665;DHT22;9980;51.020;7.772;2023-10-31T14:03:39;15.60;99.90
19665;DHT22;9980;51.020;7.772;2023-10-31T14:06:07;15.60;99.90
19665;DHT22;9980;51.020;7.772;2023-10-31T14:08:34;15.60;99.90
19665;DHT22;9980;51.020;7.772;2023-10-31T14:11:01;15.60;99.90
19665;DHT22;9980;51.020;7.772;2023-10-31T14:13:29;15.60;99.90
19665;DHT22;9980;51.020;7.772;2023-10-31T14:15:56;15.60;99.90
19665;DHT22;9980;51.020;7.772;2023-10-31T14:18:23;15.60;99.90
19665;DHT22;9980;51.020;7.772;2023-10-31T14:20:50;15.60;99.90
19665;DHT22;9980;51.020;7.772;2023-10-31T14:23:17;15.60;99.90
19665;DHT22;9980;51.020;7.772;2023-10-31T14:25:45;15.60;99.90
19665;DHT22;9980;51.020;7.772;2023-10-31T14:28:11;15.70;99.90
19665;DHT22;9980;51.020;7.772;2023-10-31T14:30:38;15.70;99.90
19665;DHT22;9980;51.020;7.772;2023-10-31T14:33:05;15.70;99.90
19665;DHT22;9980;51.020;7.772;2023-10-31T14:35:32;15.70;99.90
19665;DHT22;9980;51.020;7.772;2023-10-31T14:38:01;15.70;99.90
19665;DHT22;9980;51.020;7.772;2023-10-31T14:40:28;15.70;99.90
19665;DHT22;9980;51.020;7.772;2023-10-31T14:42:55;15.70;99.90
19665;DHT22;9980;51.020;7.772;2023-10-31T14:45:22;15.70;99.90
19665;DHT22;9980;51.020;7.772;2023-10-31T14:47:49;15.70;99.90
19665;DHT22;9980;51.020;7.772;2023-10-31T14:50:18;15.60;99.90
19665;DHT22;9980;51.020;7.772;2023-10-31T14:52:47;15.60;99.90
19665;DHT22;9980;51.020;7.772;2023-10-31T14:55:14;15.60;99.90
19665;DHT22;9980;51.020;7.772;2023-10-31T14:57:41;15.60;99.90
19665;DHT22;9980;51.020;7.772;2023-10-31T15:00:09;15.50;99.90
19665;DHT22;9980;51.020;7.772;2023-10-31T15:02:38;15.50;99.90
19665;DHT22;9980;51.020;7.772;2023-10-31T15:05:06;15.50;99.90
19665;DHT22;9980;51.020;7.772;2023-10-31T15:07:33;15.40;99.90
19665;DHT22;9980;51.020;7.772;2023-10-31T15:10:03;15.40;99.90
19665;DHT22;9980;51.020;7.772;2023-10-31T15:12:30;15.40;99.90
19665;DHT22;9980;51.020;7.772;2023-10-31T15:14:57;15.40;99.90
19665;DHT22;9980;51.020;7.772;2023-10-31T15:17:24;15.30;99.90
19665;DHT22;9980;51.020;7.772;2023-10-31T15:19:51;15.40;99.90
19665;DHT22;9980;51.020;7.772;2023-10-31T15:22:18;15.30;99.90
19665;DHT22;9980;51.020;7.772;2023-10-31T15:24:45;15.30;99.90
19665;DHT22;9980;51.020;7.772;2023-10-31T15:27:12;15.30;99.90
19665;DHT22;9980;51.020;7.772;2023-10-31T15:29:44;15.30;99.90
19665;DHT22;9980;51.020;7.772;2023-10-31T15:32:11;15.20;99.90
19665;DHT22;9980;51.020;7.772;2023-10-31T15:34:39;15.20;99.90
19665;DHT22;9980;51.020;7.772;2023-10-31T15:37:10;15.20;99.90
19665;DHT22;9980;51.020;7.772;2023-10-31T15:39:38;15.20;99.90
19665;DHT22;9980;51.020;7.772;2023-10-31T15:42:09;15.20;99.90
19665;DHT22;9980;51.020;7.772;2023-10-31T15:44:36;15.20;99.90
19665;DHT22;9980;51.020;7.772;2023-10-31T15:47:06;15.20;99.90
19665;DHT22;9980;51.020;7.772;2023-10-31T15:49:34;15.10;99.90
19665;DHT22;9980;51.020;7.772;2023-10-31T15:52:02;15.10;99.90
19665;DHT22;9980;51.020;7.772;2023-10-31T15:54:29;15.10;99.90